Esquel, Argentina
Current Conditions -  °F | °C
As of 11:00 AM on Thursday 18 Dec 2014 (Local Time) from SCFT Reporting Station
NA  
Wind Chill: 12°   Ceiling: NA
Heat Index: 12°   Visibility: 6mi
Dew Point:   Wind: 15mph
Humidity: 54%   Direction: 270°W
Pressure: 29.83"   Gusts: NA
Location:  42.91°S, 71.32°W
Report Text: SCFT 181400Z AUTO 27013KT 240V310 9000 ///046 12/03 Q1010
Loading
Personal Weather Stations






























Interactive Weather Map New forecast layout! Learn more

10-Day Weather Forecast

Advertisements
Track Severe Weather on mobile